createdAt,value
2019-02-10T00:00:45.349Z,0.00
2019-02-10T00:01:45.220Z,0.00
2019-02-10T00:02:45.083Z,0.00
2019-02-10T00:03:44.950Z,0.00
2019-02-10T00:04:44.817Z,0.00
2019-02-10T00:05:44.683Z,0.00
2019-02-10T00:06:44.550Z,0.00
2019-02-10T00:07:44.418Z,0.00
2019-02-10T00:08:44.285Z,0.00
2019-02-10T00:09:44.155Z,0.00
2019-02-10T00:10:44.016Z,0.00
2019-02-10T00:11:43.887Z,0.00
2019-02-10T00:12:43.754Z,0.00
2019-02-10T00:13:43.620Z,0.00
2019-02-10T00:14:43.486Z,0.00
2019-02-10T00:15:43.353Z,0.00
2019-02-10T00:16:43.221Z,0.00
2019-02-10T00:17:43.087Z,0.00
2019-02-10T00:18:42.958Z,0.00
2019-02-10T00:19:42.823Z,0.00
2019-02-10T00:20:42.690Z,0.00
2019-02-10T00:21:42.556Z,0.00
2019-02-10T00:22:42.425Z,0.00
2019-02-10T00:23:42.290Z,0.00
2019-02-10T00:24:42.158Z,0.00
2019-02-10T00:25:42.029Z,0.00
2019-02-10T00:26:41.894Z,0.00
2019-02-10T00:27:41.760Z,0.00
2019-02-10T00:28:41.628Z,0.00
2019-02-10T00:29:41.495Z,0.00
2019-02-10T00:30:41.362Z,0.00
2019-02-10T00:31:41.232Z,0.00
2019-02-10T00:32:41.101Z,0.00
2019-02-10T00:33:40.967Z,0.00
2019-02-10T00:34:40.832Z,0.00
2019-02-10T00:35:40.746Z,0.00
2019-02-10T00:36:40.565Z,0.00
2019-02-10T00:37:40.433Z,0.00
2019-02-10T00:38:40.304Z,0.00
2019-02-10T00:39:40.172Z,0.00
2019-02-10T00:40:40.036Z,0.00
2019-02-10T00:41:39.927Z,0.00
2019-02-10T00:42:39.767Z,0.00
2019-02-10T00:43:39.642Z,0.00
2019-02-10T00:44:39.505Z,0.00
2019-02-10T00:45:39.370Z,0.00
2019-02-10T00:46:39.238Z,0.00
2019-02-10T00:47:39.152Z,0.00
2019-02-10T00:48:38.972Z,0.00
2019-02-10T00:49:38.851Z,0.00
2019-02-10T00:50:38.706Z,0.00
2019-02-10T00:51:38.573Z,0.00
2019-02-10T00:52:38.443Z,0.00
2019-02-10T00:53:38.309Z,0.00
2019-02-10T00:54:38.175Z,0.00
2019-02-10T00:55:38.044Z,0.00
2019-02-10T00:56:37.912Z,0.00
2019-02-10T00:57:37.776Z,0.00
2019-02-10T00:58:37.646Z,0.00
2019-02-10T00:59:37.511Z,0.00
2019-02-10T01:00:37.382Z,0.00
2019-02-10T01:01:37.247Z,0.00
2019-02-10T01:02:37.116Z,0.00
2019-02-10T01:03:36.985Z,0.00
2019-02-10T01:04:36.849Z,0.00
2019-02-10T01:05:36.717Z,0.00
2019-02-10T01:06:41.437Z,0.00
2019-02-10T01:07:36.453Z,0.00
2019-02-10T01:08:36.326Z,0.00
2019-02-10T01:09:36.185Z,0.00
2019-02-10T01:10:36.053Z,0.00
2019-02-10T01:11:35.921Z,0.00
2019-02-10T01:12:35.788Z,0.00
2019-02-10T01:13:35.655Z,0.00
2019-02-10T01:14:35.522Z,0.00
2019-02-10T01:15:35.391Z,0.00
2019-02-10T01:16:35.258Z,0.00
2019-02-10T01:17:35.125Z,0.00
2019-02-10T01:18:34.995Z,0.00
2019-02-10T01:19:34.860Z,0.00
2019-02-10T01:20:34.730Z,0.00
2019-02-10T01:21:34.600Z,0.00
2019-02-10T01:22:34.463Z,0.00
2019-02-10T01:23:34.331Z,0.00
2019-02-10T01:24:34.203Z,0.00
2019-02-10T01:25:34.065Z,0.00
2019-02-10T01:26:33.933Z,0.00
2019-02-10T01:27:33.800Z,0.00
2019-02-10T01:28:33.671Z,0.00
2019-02-10T01:29:33.535Z,0.00
2019-02-10T01:30:33.403Z,0.00
2019-02-10T01:31:33.271Z,0.00
2019-02-10T01:32:33.139Z,0.00
2019-02-10T01:33:33.006Z,0.00
2019-02-10T01:34:32.873Z,0.00
2019-02-10T01:35:32.741Z,0.00
2019-02-10T01:36:32.609Z,0.00
2019-02-10T01:37:32.474Z,0.00
2019-02-10T01:38:32.343Z,0.00
2019-02-10T01:39:32.210Z,0.00
2019-02-10T01:40:32.078Z,0.00
2019-02-10T01:41:31.946Z,0.00
2019-02-10T01:42:31.814Z,0.00
2019-02-10T01:43:31.682Z,0.00
2019-02-10T01:44:31.551Z,0.00
2019-02-10T01:45:31.416Z,0.00
2019-02-10T01:46:31.285Z,0.00
2019-02-10T01:47:31.152Z,0.00
2019-02-10T01:48:31.020Z,0.00
2019-02-10T01:49:30.893Z,0.00
2019-02-10T01:50:30.756Z,0.00
2019-02-10T01:51:30.624Z,0.00
2019-02-10T01:52:30.492Z,0.00
2019-02-10T01:53:30.356Z,0.00
2019-02-10T01:54:30.225Z,0.00
2019-02-10T01:55:30.093Z,0.00
2019-02-10T01:56:29.964Z,0.00
2019-02-10T01:57:29.829Z,0.00
2019-02-10T01:58:29.695Z,0.00
2019-02-10T01:59:29.565Z,0.00
2019-02-10T02:00:29.433Z,0.00
2019-02-10T02:01:29.299Z,0.00
2019-02-10T02:02:29.169Z,0.00
2019-02-10T02:03:29.035Z,0.00
2019-02-10T02:04:28.904Z,0.00
2019-02-10T02:05:28.770Z,0.00
2019-02-10T02:06:28.639Z,0.00
2019-02-10T02:07:28.507Z,0.00
2019-02-10T02:08:28.375Z,0.00
2019-02-10T02:09:28.241Z,0.00
2019-02-10T02:10:28.110Z,0.00
2019-02-10T02:11:27.976Z,0.00
2019-02-10T02:12:27.847Z,0.00
2019-02-10T02:13:27.712Z,0.00
2019-02-10T02:14:27.579Z,0.00
2019-02-10T02:15:27.450Z,0.00
2019-02-10T02:16:27.316Z,0.00
2019-02-10T02:17:27.184Z,0.00
2019-02-10T02:18:27.050Z,0.00
2019-02-10T02:19:26.920Z,0.00
2019-02-10T02:20:26.787Z,0.00
2019-02-10T02:21:26.655Z,0.00
2019-02-10T02:22:26.525Z,0.00
2019-02-10T02:23:26.389Z,0.00
2019-02-10T02:24:26.256Z,0.00
2019-02-10T02:25:26.123Z,0.00
2019-02-10T02:26:25.992Z,0.00
2019-02-10T02:27:25.867Z,0.00
2019-02-10T02:28:25.729Z,0.00
2019-02-10T02:29:25.594Z,0.00
2019-02-10T02:30:25.461Z,0.00
2019-02-10T02:31:25.334Z,0.00
2019-02-10T02:32:25.196Z,0.00
2019-02-10T02:33:25.064Z,0.00
2019-02-10T02:34:24.938Z,0.00
2019-02-10T02:35:24.799Z,0.00
2019-02-10T02:36:24.667Z,0.00
2019-02-10T02:37:24.536Z,0.00
2019-02-10T02:38:24.403Z,0.00
2019-02-10T02:39:24.270Z,0.00
2019-02-10T02:40:24.140Z,0.00
2019-02-10T02:41:24.004Z,0.00
2019-02-10T02:42:23.878Z,0.00
2019-02-10T02:43:23.740Z,0.00
2019-02-10T02:44:23.614Z,0.00
2019-02-10T02:45:23.475Z,0.00
2019-02-10T02:46:23.344Z,0.00
2019-02-10T02:47:23.213Z,0.00
2019-02-10T02:48:23.080Z,0.00
2019-02-10T02:49:22.945Z,0.00
2019-02-10T02:50:22.815Z,0.00
2019-02-10T02:51:22.681Z,0.00
2019-02-10T02:52:22.549Z,0.00
2019-02-10T02:53:22.416Z,0.00
2019-02-10T02:54:22.283Z,0.00
2019-02-10T02:55:22.151Z,0.00
2019-02-10T02:56:22.020Z,0.00
2019-02-10T02:57:21.888Z,0.00
2019-02-10T02:58:21.761Z,0.00
2019-02-10T02:59:21.622Z,0.00
2019-02-10T03:00:21.493Z,0.00
2019-02-10T03:01:21.356Z,0.00
2019-02-10T03:02:21.227Z,0.00
2019-02-10T03:03:21.093Z,0.00
2019-02-10T03:04:20.965Z,0.00
2019-02-10T03:05:20.830Z,0.00
2019-02-10T03:06:20.698Z,0.00
2019-02-10T03:07:20.566Z,0.00
2019-02-10T03:08:20.432Z,0.00
2019-02-10T03:09:20.299Z,0.00
2019-02-10T03:10:20.167Z,0.00
2019-02-10T03:11:20.043Z,0.00
2019-02-10T03:12:19.905Z,0.00
2019-02-10T03:13:19.771Z,0.00
2019-02-10T03:14:19.639Z,0.00
2019-02-10T03:15:19.508Z,0.00
2019-02-10T03:16:19.376Z,0.00
2019-02-10T03:17:19.248Z,0.00
2019-02-10T03:18:19.112Z,0.00
2019-02-10T03:19:18.984Z,0.00
2019-02-10T03:20:18.847Z,0.00
2019-02-10T03:21:18.716Z,0.00
2019-02-10T03:22:18.609Z,0.00
2019-02-10T03:23:18.449Z,0.00
2019-02-10T03:24:18.320Z,0.00
2019-02-10T03:25:18.186Z,0.00
2019-02-10T03:26:18.053Z,0.00
2019-02-10T03:27:17.920Z,0.00
2019-02-10T03:28:17.789Z,0.00
2019-02-10T03:29:17.658Z,0.00
2019-02-10T03:30:17.526Z,0.00
2019-02-10T03:31:17.393Z,0.00
2019-02-10T03:32:17.269Z,0.00
2019-02-10T03:33:17.128Z,0.00
2019-02-10T03:34:17.009Z,0.00
2019-02-10T03:35:16.863Z,0.00
2019-02-10T03:36:16.730Z,0.00
2019-02-10T03:37:16.596Z,0.00
2019-02-10T03:38:16.466Z,0.00
2019-02-10T03:39:16.331Z,0.00
2019-02-10T03:40:16.204Z,0.00
2019-02-10T03:41:16.068Z,0.00
2019-02-10T03:42:15.937Z,0.00
2019-02-10T03:43:15.811Z,0.00
2019-02-10T03:44:15.673Z,0.00
2019-02-10T03:45:15.538Z,0.00
2019-02-10T03:46:15.405Z,0.00
2019-02-10T03:47:15.275Z,0.00
2019-02-10T03:48:15.147Z,0.00
2019-02-10T03:49:15.029Z,0.00
2019-02-10T03:50:14.878Z,0.00
2019-02-10T03:51:14.747Z,0.00
2019-02-10T03:52:14.612Z,0.00
2019-02-10T03:53:14.480Z,0.00
2019-02-10T03:54:14.353Z,0.00
2019-02-10T03:55:14.215Z,0.00
2019-02-10T03:56:14.083Z,0.00
2019-02-10T03:57:13.948Z,0.00
2019-02-10T03:58:13.816Z,0.00
2019-02-10T03:59:13.684Z,0.00
2019-02-10T04:00:13.553Z,0.00
2019-02-10T04:01:13.418Z,0.00
2019-02-10T04:02:13.288Z,0.00
2019-02-10T04:03:13.155Z,0.00
2019-02-10T04:04:13.020Z,0.00
2019-02-10T04:05:12.908Z,0.00
2019-02-10T04:06:12.754Z,0.00
2019-02-10T04:07:12.624Z,0.00
2019-02-10T04:08:12.493Z,0.00
2019-02-10T04:09:12.357Z,0.00
2019-02-10T04:10:12.226Z,0.00
2019-02-10T04:11:12.096Z,0.00
2019-02-10T04:12:11.972Z,0.00
2019-02-10T04:13:11.829Z,0.00
2019-02-10T04:14:11.696Z,0.00
2019-02-10T04:15:11.563Z,0.00
2019-02-10T04:16:11.431Z,0.00
2019-02-10T04:17:11.298Z,0.00
2019-02-10T04:18:11.164Z,0.00
2019-02-10T04:19:11.036Z,0.00
2019-02-10T04:20:10.899Z,0.00
2019-02-10T04:21:10.770Z,0.00
2019-02-10T04:22:10.640Z,0.00
2019-02-10T04:23:10.508Z,0.00
2019-02-10T04:24:10.372Z,0.00
2019-02-10T04:25:10.239Z,0.00
2019-02-10T04:26:10.108Z,0.00
2019-02-10T04:27:09.973Z,0.00
2019-02-10T04:28:09.846Z,0.00
2019-02-10T04:29:09.712Z,0.00
2019-02-10T04:30:09.698Z,0.00
2019-02-10T04:31:09.446Z,0.00
2019-02-10T04:32:09.310Z,0.00
2019-02-10T04:33:09.183Z,0.00
2019-02-10T04:34:09.047Z,0.00
2019-02-10T04:35:08.917Z,0.00
2019-02-10T04:36:08.781Z,0.00
2019-02-10T04:37:08.649Z,0.00
2019-02-10T04:38:08.523Z,0.00
2019-02-10T04:39:08.384Z,0.00
2019-02-10T04:40:08.269Z,0.00
2019-02-10T04:41:08.118Z,0.00
2019-02-10T04:42:07.985Z,0.00
2019-02-10T04:43:07.853Z,0.00
2019-02-10T04:44:07.721Z,0.00
2019-02-10T04:45:07.586Z,0.00
2019-02-10T04:46:07.462Z,0.00
2019-02-10T04:47:07.324Z,0.00
2019-02-10T04:48:07.189Z,0.00
2019-02-10T04:49:07.054Z,0.00
2019-02-10T04:50:06.924Z,0.00
2019-02-10T04:51:06.791Z,0.00
2019-02-10T04:52:06.659Z,0.00
2019-02-10T04:53:06.525Z,0.00
2019-02-10T04:54:06.390Z,0.00
2019-02-10T04:55:06.259Z,0.00
2019-02-10T04:56:06.126Z,0.00
2019-02-10T04:57:05.993Z,0.00
2019-02-10T04:58:05.873Z,0.00
2019-02-10T04:59:05.727Z,0.00
2019-02-10T05:00:05.594Z,0.00
2019-02-10T05:01:05.463Z,0.00
2019-02-10T05:02:05.328Z,0.00
2019-02-10T05:03:05.197Z,0.00
2019-02-10T05:04:05.076Z,0.00
2019-02-10T05:05:04.932Z,0.00
2019-02-10T05:06:04.815Z,0.00
2019-02-10T05:07:04.666Z,0.00
2019-02-10T05:08:04.533Z,0.00
2019-02-10T05:09:04.401Z,0.00
2019-02-10T05:10:04.267Z,0.00
2019-02-10T05:11:04.133Z,0.00
2019-02-10T05:12:03.999Z,0.00
2019-02-10T05:13:03.868Z,0.00
2019-02-10T05:14:03.746Z,0.00
2019-02-10T05:15:03.603Z,0.00
2019-02-10T05:16:03.470Z,0.00
2019-02-10T05:17:03.342Z,0.00
2019-02-10T05:18:03.205Z,0.00
2019-02-10T05:19:03.072Z,0.00
2019-02-10T05:20:02.945Z,0.00
2019-02-10T05:21:02.807Z,0.00
2019-02-10T05:22:02.677Z,0.00
2019-02-10T05:23:02.542Z,0.00
2019-02-10T05:24:03.820Z,0.00
2019-02-10T05:25:02.275Z,0.00
2019-02-10T05:26:02.144Z,0.00
2019-02-10T05:27:02.008Z,0.00
2019-02-10T05:28:01.880Z,0.00
2019-02-10T05:29:01.746Z,0.00
2019-02-10T05:30:01.614Z,0.00
2019-02-10T05:31:01.487Z,0.00
2019-02-10T05:32:01.359Z,0.00
2019-02-10T05:33:01.214Z,0.00
2019-02-10T05:34:01.084Z,0.00
2019-02-10T05:35:00.953Z,0.00
2019-02-10T05:36:00.816Z,0.00
2019-02-10T05:37:00.684Z,0.00
2019-02-10T05:38:04.170Z,0.00
2019-02-10T05:39:00.419Z,0.00
2019-02-10T05:40:00.357Z,0.00
2019-02-10T05:41:00.153Z,0.00
2019-02-10T05:42:00.030Z,0.00
2019-02-10T05:42:59.899Z,0.00
2019-02-10T05:43:59.757Z,0.00
2019-02-10T05:44:59.624Z,0.00
2019-02-10T05:45:59.489Z,0.00
2019-02-10T05:46:59.357Z,0.00
2019-02-10T05:47:59.227Z,0.00
2019-02-10T05:48:59.089Z,0.00
2019-02-10T05:49:58.958Z,0.00
2019-02-10T05:50:58.828Z,0.00
2019-02-10T05:51:58.693Z,0.00
2019-02-10T05:52:58.561Z,0.00
2019-02-10T05:53:58.446Z,0.00
2019-02-10T05:54:58.302Z,0.00
2019-02-10T05:55:58.167Z,0.00
2019-02-10T05:56:58.030Z,0.00
2019-02-10T05:57:57.897Z,0.00
2019-02-10T05:58:57.771Z,0.00
2019-02-10T05:59:57.639Z,0.00
2019-02-10T06:00:57.500Z,0.00
2019-02-10T06:01:57.370Z,0.00
2019-02-10T06:02:57.234Z,0.00
2019-02-10T06:03:57.103Z,0.00
2019-02-10T06:04:56.973Z,0.00
2019-02-10T06:05:56.842Z,0.00
2019-02-10T06:06:56.716Z,0.00
2019-02-10T06:07:56.574Z,0.00
2019-02-10T06:08:56.442Z,0.00
2019-02-10T06:09:56.308Z,0.00
2019-02-10T06:10:56.175Z,0.00
2019-02-10T06:11:56.044Z,0.00
2019-02-10T06:12:55.909Z,4.00
2019-02-10T06:13:55.781Z,4.00
2019-02-10T06:14:55.646Z,4.00
2019-02-10T06:15:55.512Z,4.00
2019-02-10T06:16:55.384Z,4.00
2019-02-10T06:17:55.248Z,8.00
2019-02-10T06:18:55.117Z,4.00
2019-02-10T06:19:54.995Z,8.00
2019-02-10T06:20:54.850Z,8.00
2019-02-10T06:21:54.726Z,12.00
2019-02-10T06:22:54.586Z,12.00
2019-02-10T06:23:54.456Z,16.00
2019-02-10T06:24:54.327Z,16.00
2019-02-10T06:25:54.188Z,20.00
2019-02-10T06:26:54.059Z,24.00
2019-02-10T06:27:53.931Z,28.00
2019-02-10T06:28:53.793Z,32.00
2019-02-10T06:29:53.660Z,32.00
2019-02-10T06:30:53.528Z,36.00
2019-02-10T06:31:53.397Z,40.00
2019-02-10T06:32:53.262Z,44.00
2019-02-10T06:33:53.170Z,48.00
2019-02-10T06:34:53.012Z,52.00
2019-02-10T06:35:52.881Z,56.00
2019-02-10T06:36:52.740Z,68.00
2019-02-10T06:37:52.601Z,72.00
2019-02-10T06:38:52.474Z,80.00
2019-02-10T06:39:52.336Z,88.00
2019-02-10T06:40:52.275Z,88.00
2019-02-10T06:41:52.069Z,100.00
2019-02-10T06:42:51.939Z,104.00
2019-02-10T06:43:51.805Z,112.00
2019-02-10T06:44:51.673Z,120.00
2019-02-10T06:45:51.540Z,132.00
2019-02-10T06:46:51.407Z,140.00
2019-02-10T06:47:51.276Z,148.00
2019-02-10T06:48:51.143Z,160.00
2019-02-10T06:49:51.012Z,172.00
2019-02-10T06:50:50.877Z,180.00
2019-02-10T06:51:50.745Z,192.00
2019-02-10T06:52:50.614Z,196.00
2019-02-10T06:53:50.482Z,204.00
2019-02-10T06:54:50.351Z,212.00
2019-02-10T06:55:50.217Z,220.00
2019-02-10T06:56:50.084Z,224.00
2019-02-10T06:57:49.953Z,232.00
2019-02-10T06:58:49.824Z,248.00
2019-02-10T06:59:49.688Z,264.00
2019-02-10T07:00:49.556Z,272.00
2019-02-10T07:01:49.430Z,288.00
2019-02-10T07:02:49.293Z,300.00
2019-02-10T07:03:49.160Z,308.00
2019-02-10T07:04:49.044Z,324.00
2019-02-10T07:05:48.928Z,336.00
2019-02-10T07:06:48.769Z,344.00
2019-02-10T07:07:48.634Z,336.00
2019-02-10T07:08:48.502Z,328.00
2019-02-10T07:09:48.372Z,340.00
2019-02-10T07:10:48.237Z,372.00
2019-02-10T07:11:48.116Z,404.00
2019-02-10T07:12:47.974Z,432.00
2019-02-10T07:13:47.846Z,452.00
2019-02-10T07:14:47.712Z,460.00
2019-02-10T07:15:47.582Z,468.00
2019-02-10T07:16:47.447Z,500.00
2019-02-10T07:17:47.317Z,540.00
2019-02-10T07:18:47.186Z,556.00
2019-02-10T07:19:47.061Z,584.00
2019-02-10T07:20:46.920Z,640.00
2019-02-10T07:21:46.787Z,696.00
2019-02-10T07:22:46.658Z,700.00
2019-02-10T07:23:46.525Z,768.00
2019-02-10T07:24:46.412Z,872.00
2019-02-10T07:25:46.260Z,1044.00
2019-02-10T07:26:46.129Z,1172.00
2019-02-10T07:27:45.997Z,1156.00
2019-02-10T07:28:45.868Z,1248.00
2019-02-10T07:29:45.756Z,1280.00
2019-02-10T07:30:45.719Z,1244.00
2019-02-10T07:31:45.496Z,1220.00
2019-02-10T07:32:45.339Z,1268.00
2019-02-10T07:33:45.205Z,1312.00
2019-02-10T07:34:48.362Z,1236.00
2019-02-10T07:35:44.944Z,1232.00
2019-02-10T07:36:44.813Z,1192.00
2019-02-10T07:37:44.687Z,1096.00
2019-02-10T07:38:44.547Z,1048.00
2019-02-10T07:39:44.416Z,1080.00
2019-02-10T07:40:44.288Z,1108.00
2019-02-10T07:41:44.159Z,1156.00
2019-02-10T07:42:44.072Z,1144.00
2019-02-10T07:43:43.893Z,1240.00
2019-02-10T07:44:43.782Z,1256.00
2019-02-10T07:45:43.631Z,1356.00
2019-02-10T07:46:43.534Z,1436.00
2019-02-10T07:47:43.367Z,1516.00
2019-02-10T07:48:43.240Z,1664.00
2019-02-10T07:49:43.110Z,1888.00
2019-02-10T07:50:42.997Z,1944.00
2019-02-10T07:51:42.846Z,2112.00
2019-02-10T07:52:42.712Z,2232.00
2019-02-10T07:53:42.582Z,2388.00
2019-02-10T07:54:42.536Z,2376.00
2019-02-10T07:55:42.326Z,2412.00
2019-02-10T07:56:42.189Z,2488.00
2019-02-10T07:57:42.058Z,2508.00
2019-02-10T07:58:41.930Z,2536.00
2019-02-10T07:59:41.800Z,2504.00
2019-02-10T08:00:41.671Z,2488.00
2019-02-10T08:01:41.536Z,2440.00
2019-02-10T08:02:41.405Z,2396.00
2019-02-10T08:03:41.315Z,2344.00
2019-02-10T08:04:41.146Z,2260.00
2019-02-10T08:05:41.015Z,2192.00
2019-02-10T08:06:40.885Z,2164.00
2019-02-10T08:07:40.757Z,2120.00
2019-02-10T08:08:46.513Z,2064.00
2019-02-10T08:09:40.494Z,2052.00
2019-02-10T08:10:40.364Z,2076.00
2019-02-10T08:11:40.232Z,2116.00
2019-02-10T08:12:40.103Z,2196.00
2019-02-10T08:13:39.971Z,2264.00
2019-02-10T08:14:39.842Z,2328.00
2019-02-10T08:15:39.711Z,2344.00
2019-02-10T08:16:39.580Z,2336.00
2019-02-10T08:17:39.453Z,2340.00
2019-02-10T08:18:39.321Z,2364.00
2019-02-10T08:19:39.190Z,2392.00
2019-02-10T08:20:40.534Z,2388.00
2019-02-10T08:21:38.932Z,2368.00
2019-02-10T08:22:38.802Z,2336.00
2019-02-10T08:23:38.671Z,2328.00
2019-02-10T08:24:38.542Z,2356.00
2019-02-10T08:25:38.412Z,2396.00
2019-02-10T08:26:38.283Z,2440.00
2019-02-10T08:27:38.155Z,2432.00
2019-02-10T08:28:38.025Z,2372.00
2019-02-10T08:29:37.895Z,2272.00
2019-02-10T08:30:37.761Z,2224.00
2019-02-10T08:31:37.633Z,2184.00
2019-02-10T08:32:37.505Z,2164.00
2019-02-10T08:33:37.374Z,2116.00
2019-02-10T08:34:37.243Z,2036.00
2019-02-10T08:35:37.115Z,2028.00
2019-02-10T08:36:36.984Z,2008.00
2019-02-10T08:37:36.856Z,1948.00
2019-02-10T08:38:38.243Z,1968.00
2019-02-10T08:39:36.595Z,1960.00
2019-02-10T08:40:36.465Z,1968.00
2019-02-10T08:41:36.340Z,1996.00
2019-02-10T08:42:36.208Z,2140.00
2019-02-10T08:43:36.077Z,2196.00
2019-02-10T08:44:35.948Z,2068.00
2019-02-10T08:45:35.828Z,1904.00
2019-02-10T08:46:35.690Z,1744.00
2019-02-10T08:47:35.563Z,1788.00
2019-02-10T08:48:35.430Z,1664.00
2019-02-10T08:49:35.301Z,1584.00
2019-02-10T08:50:35.171Z,1636.00
2019-02-10T08:51:35.045Z,1680.00
2019-02-10T08:52:34.911Z,1768.00
2019-02-10T08:53:34.784Z,1804.00
2019-02-10T08:54:34.655Z,1892.00
2019-02-10T08:55:34.526Z,1920.00
2019-02-10T08:56:34.442Z,1900.00
2019-02-10T08:57:34.268Z,2032.00
2019-02-10T08:58:34.145Z,2112.00
2019-02-10T08:59:34.012Z,2344.00
2019-02-10T09:00:33.892Z,2224.00
2019-02-10T09:01:33.753Z,2184.00
2019-02-10T09:02:33.620Z,2248.00
2019-02-10T09:03:33.493Z,2476.00
2019-02-10T09:04:33.361Z,2404.00
2019-02-10T09:05:33.245Z,2284.00
2019-02-10T09:06:33.104Z,2104.00
2019-02-10T09:07:32.985Z,2068.00
2019-02-10T09:08:32.848Z,2136.00
2019-02-10T09:09:32.720Z,2252.00
2019-02-10T09:10:32.591Z,2452.00
2019-02-10T09:11:32.456Z,2572.00
2019-02-10T09:12:32.330Z,2608.00
2019-02-10T09:13:32.205Z,2752.00
2019-02-10T09:14:32.071Z,2772.00
2019-02-10T09:15:31.943Z,2832.00
2019-02-10T09:16:31.813Z,2904.00
2019-02-10T09:17:31.721Z,2848.00
2019-02-10T09:18:31.568Z,2884.00
2019-02-10T09:19:31.706Z,2916.00
2019-02-10T09:20:31.298Z,2792.00
2019-02-10T09:21:31.169Z,2620.00
2019-02-10T09:22:31.041Z,2860.00
2019-02-10T09:23:30.937Z,3036.00
2019-02-10T09:24:30.791Z,3008.00
2019-02-10T09:25:30.653Z,3012.00
2019-02-10T09:26:30.524Z,2972.00
2019-02-10T09:27:30.398Z,2784.00
2019-02-10T09:28:30.270Z,2656.00
2019-02-10T09:29:30.139Z,2712.00
2019-02-10T09:30:30.021Z,2720.00
2019-02-10T09:31:29.884Z,2836.00
2019-02-10T09:32:29.801Z,2824.00
2019-02-10T09:33:29.759Z,2680.00
2019-02-10T09:34:29.507Z,2388.00
2019-02-10T09:35:29.369Z,2212.00
2019-02-10T09:36:29.241Z,2092.00
2019-02-10T09:37:29.110Z,2056.00
2019-02-10T09:38:28.984Z,2124.00
2019-02-10T09:39:28.861Z,2400.00
2019-02-10T09:40:28.770Z,2916.00
2019-02-10T09:41:28.594Z,3308.00
2019-02-10T09:42:28.465Z,3516.00
2019-02-10T09:43:28.336Z,3692.00
2019-02-10T09:44:28.206Z,3756.00
2019-02-10T09:45:28.078Z,3588.00
2019-02-10T09:46:27.957Z,3452.00
2019-02-10T09:47:27.825Z,3364.00
2019-02-10T09:48:27.693Z,3320.00
2019-02-10T09:49:27.562Z,3288.00
2019-02-10T09:50:27.434Z,3312.00
2019-02-10T09:51:27.304Z,3496.00
2019-02-10T09:52:27.174Z,3664.00
2019-02-10T09:53:27.047Z,3796.00
2019-02-10T09:54:26.933Z,3884.00
2019-02-10T09:55:26.789Z,3948.00
2019-02-10T09:56:26.660Z,4012.00
2019-02-10T09:57:26.532Z,3960.00
2019-02-10T09:58:26.402Z,3844.00
2019-02-10T09:59:26.278Z,3724.00
2019-02-10T10:00:26.149Z,3600.00
2019-02-10T10:01:26.015Z,3360.00
2019-02-10T10:02:25.912Z,2952.00
2019-02-10T10:03:25.802Z,2668.00
2019-02-10T10:04:25.627Z,2596.00
2019-02-10T10:05:25.501Z,2672.00
2019-02-10T10:06:25.379Z,2936.00
2019-02-10T10:07:25.245Z,3112.00
2019-02-10T10:08:25.115Z,2988.00
2019-02-10T10:09:25.046Z,2860.00
2019-02-10T10:10:24.862Z,3056.00
2019-02-10T10:11:24.726Z,3456.00
2019-02-10T10:12:24.600Z,3908.00
2019-02-10T10:13:24.474Z,4156.00
2019-02-10T10:14:30.670Z,4352.00
2019-02-10T10:15:24.213Z,4396.00
2019-02-10T10:16:24.085Z,4296.00
2019-02-10T10:17:23.973Z,4264.00
2019-02-10T10:18:23.827Z,4316.00
2019-02-10T10:19:23.704Z,4444.00
2019-02-10T10:20:23.570Z,4632.00
2019-02-10T10:21:23.440Z,4920.00
2019-02-10T10:22:23.313Z,5076.00
2019-02-10T10:23:23.185Z,5052.00
2019-02-10T10:24:23.058Z,5108.00
2019-02-10T10:25:22.929Z,5232.00
2019-02-10T10:26:22.801Z,5188.00
2019-02-10T10:27:22.670Z,5148.00
2019-02-10T10:28:22.542Z,5112.00
2019-02-10T10:29:22.414Z,4944.00
2019-02-10T10:30:22.287Z,4824.00
2019-02-10T10:31:22.158Z,4768.00
2019-02-10T10:32:22.036Z,4792.00
2019-02-10T10:33:21.902Z,4788.00
2019-02-10T10:34:21.783Z,4920.00
2019-02-10T10:35:21.647Z,5180.00
2019-02-10T10:36:21.540Z,5384.00
2019-02-10T10:37:21.440Z,5468.00
2019-02-10T10:38:21.270Z,5392.00
2019-02-10T10:39:27.132Z,5436.00
2019-02-10T10:40:21.014Z,5460.00
2019-02-10T10:41:20.893Z,5364.00
2019-02-10T10:42:20.749Z,5308.00
2019-02-10T10:43:20.621Z,5268.00
2019-02-10T10:44:20.491Z,5452.00
2019-02-10T10:45:20.368Z,5508.00
2019-02-10T10:46:20.239Z,5608.00
2019-02-10T10:47:20.113Z,5516.00
2019-02-10T10:48:19.981Z,4952.00
2019-02-10T10:49:19.858Z,4640.00
2019-02-10T10:50:19.727Z,4528.00
2019-02-10T10:51:19.594Z,4448.00
2019-02-10T10:52:19.468Z,4280.00
2019-02-10T10:53:19.339Z,4224.00
2019-02-10T10:54:19.210Z,4116.00
2019-02-10T10:55:19.083Z,4096.00
2019-02-10T10:56:18.959Z,3508.00
2019-02-10T10:57:18.834Z,3108.00
2019-02-10T10:58:18.698Z,3296.00
2019-02-10T10:59:18.576Z,3316.00
2019-02-10T11:00:18.441Z,3880.00
2019-02-10T11:01:25.155Z,4100.00
2019-02-10T11:02:18.187Z,3812.00
2019-02-10T11:03:18.059Z,4232.00
2019-02-10T11:04:17.928Z,4924.00
2019-02-10T11:05:17.807Z,5612.00
2019-02-10T11:06:17.676Z,6140.00
2019-02-10T11:07:17.551Z,6656.00
2019-02-10T11:08:17.456Z,6008.00
2019-02-10T11:09:17.291Z,4880.00
2019-02-10T11:10:17.163Z,5108.00
2019-02-10T11:11:17.035Z,4372.00
2019-02-10T11:12:16.909Z,4568.00
2019-02-10T11:13:16.785Z,5076.00
2019-02-10T11:14:16.663Z,5220.00
2019-02-10T11:15:16.531Z,5212.00
2019-02-10T11:16:16.402Z,4412.00
2019-02-10T11:17:16.274Z,3160.00
2019-02-10T11:18:16.163Z,2872.00
2019-02-10T11:19:16.022Z,3504.00
2019-02-10T11:20:15.922Z,4256.00
2019-02-10T11:21:15.787Z,3396.00
2019-02-10T11:22:15.642Z,2948.00
2019-02-10T11:23:15.516Z,2528.00
2019-02-10T11:24:15.387Z,3704.00
2019-02-10T11:25:15.261Z,3532.00
2019-02-10T11:26:15.136Z,3368.00
2019-02-10T11:27:15.008Z,3968.00
2019-02-10T11:28:14.883Z,3920.00
2019-02-10T11:29:14.754Z,3184.00
2019-02-10T11:30:14.677Z,3404.00
2019-02-10T11:31:14.502Z,3580.00
2019-02-10T11:32:14.373Z,4272.00
2019-02-10T11:33:14.248Z,4364.00
2019-02-10T11:34:14.121Z,4264.00
2019-02-10T11:35:14.004Z,4584.00
2019-02-10T11:36:13.866Z,4044.00
2019-02-10T11:37:13.743Z,4072.00
2019-02-10T11:38:13.613Z,4188.00
2019-02-10T11:39:13.487Z,3968.00
2019-02-10T11:40:13.359Z,4132.00
2019-02-10T11:41:13.233Z,4084.00
2019-02-10T11:42:13.107Z,4212.00
2019-02-10T11:43:12.980Z,4388.00
2019-02-10T11:44:12.852Z,4548.00
2019-02-10T11:45:12.728Z,4216.00
2019-02-10T11:46:12.599Z,4036.00
2019-02-10T11:47:12.471Z,3764.00
2019-02-10T11:48:12.349Z,3416.00
2019-02-10T11:49:12.218Z,4456.00
2019-02-10T11:50:12.091Z,4876.00
2019-02-10T11:51:11.963Z,4924.00
2019-02-10T11:52:11.836Z,4364.00
2019-02-10T11:53:11.712Z,3864.00
2019-02-10T11:54:11.589Z,3464.00
2019-02-10T11:55:11.457Z,3312.00
2019-02-10T11:56:11.332Z,3392.00
2019-02-10T11:57:11.206Z,3736.00
2019-02-10T11:58:11.078Z,3992.00
2019-02-10T11:59:10.949Z,3992.00
2019-02-10T12:00:10.824Z,4100.00
2019-02-10T12:01:10.718Z,4348.00
2019-02-10T12:02:10.570Z,4628.00
2019-02-10T12:03:10.443Z,5048.00
2019-02-10T12:04:10.316Z,5204.00
2019-02-10T12:05:10.188Z,5136.00
2019-02-10T12:06:10.062Z,4816.00
2019-02-10T12:07:09.935Z,4488.00
2019-02-10T12:08:09.806Z,4780.00
2019-02-10T12:09:09.679Z,4768.00
2019-02-10T12:10:09.553Z,4996.00
2019-02-10T12:11:09.426Z,4668.00
2019-02-10T12:12:09.330Z,4480.00
2019-02-10T12:13:09.169Z,4480.00
2019-02-10T12:14:09.044Z,4500.00
2019-02-10T12:15:08.918Z,4700.00
2019-02-10T12:16:08.788Z,4692.00
2019-02-10T12:17:08.662Z,5036.00
2019-02-10T12:18:08.534Z,5328.00
2019-02-10T12:19:08.407Z,4952.00
2019-02-10T12:20:08.289Z,4272.00
2019-02-10T12:21:08.153Z,4156.00
2019-02-10T12:22:08.024Z,3872.00
2019-02-10T12:23:07.899Z,3924.00
2019-02-10T12:24:07.770Z,4184.00
2019-02-10T12:25:07.643Z,3704.00
2019-02-10T12:26:07.516Z,3640.00
2019-02-10T12:27:07.386Z,3760.00
2019-02-10T12:28:07.262Z,3700.00
2019-02-10T12:29:07.131Z,3844.00
2019-02-10T12:30:07.006Z,3332.00
2019-02-10T12:31:06.878Z,3144.00
2019-02-10T12:32:06.750Z,3444.00
2019-02-10T12:33:06.622Z,3748.00
2019-02-10T12:34:06.493Z,3836.00
2019-02-10T12:35:06.369Z,4180.00
2019-02-10T12:36:06.237Z,4408.00
2019-02-10T12:37:06.109Z,4952.00
2019-02-10T12:38:05.987Z,5216.00
2019-02-10T12:39:05.857Z,4912.00
2019-02-10T12:40:05.733Z,4964.00
2019-02-10T12:41:05.601Z,4396.00
2019-02-10T12:42:05.471Z,3432.00